Time;durP1;ratioP1;P1;durP2;ratioP2;P2;SDS_P1;SDS_P2;PMS_P1;PMS_P2;Temp;Humidity;BMP_temperature;BMP_pressure;BME280_temperature;BME280_humidity;BME280_pressure;Samples;Min_cycle;Max_cycle;Signal;HPM_P1;HPM_P2
2022/04/16 00:00:22;;;;;;;37.90;30.90;;;6.10;99.90;;;;;;2617844;54;20431;-81
2022/04/16 00:02:49;;;;;;;39.60;32.40;;;6.10;99.90;;;;;;2618010;54;21051;-81
2022/04/16 00:05:15;;;;;;;41.70;32.53;;;6.00;99.90;;;;;;2617327;54;20987;-81
2022/04/16 00:07:41;;;;;;;35.70;30.67;;;6.00;99.90;;;;;;2617273;54;20387;-81
2022/04/16 00:10:09;;;;;;;40.43;32.37;;;6.00;99.90;;;;;;2617988;39;20786;-81
2022/04/16 00:12:35;;;;;;;38.63;30.10;;;6.00;99.90;;;;;;2618207;47;20369;-82
2022/04/16 00:15:01;;;;;;;38.43;29.87;;;6.00;99.90;;;;;;2618276;47;20390;-81
2022/04/16 00:17:27;;;;;;;36.40;27.73;;;5.90;99.90;;;;;;2618071;47;20410;-82
2022/04/16 00:19:53;;;;;;;34.27;27.70;;;5.80;99.90;;;;;;2618288;47;20439;-81
2022/04/16 00:22:19;;;;;;;33.43;29.90;;;5.90;99.90;;;;;;2618564;54;20415;-81
2022/04/16 00:24:50;;;;;;;32.63;28.83;;;5.80;99.90;;;;;;2618707;47;20383;-82
2022/04/16 00:27:17;;;;;;;36.70;27.90;;;5.90;99.90;;;;;;2618442;51;20371;-80
2022/04/16 00:29:42;;;;;;;30.37;26.90;;;5.80;99.90;;;;;;2618216;54;20403;-82
2022/04/16 00:32:09;;;;;;;32.90;27.50;;;5.70;99.90;;;;;;2618204;47;20455;-80
2022/04/16 00:34:35;;;;;;;34.30;27.07;;;5.80;99.90;;;;;;2618852;39;20531;-81
2022/04/16 00:37:02;;;;;;;34.53;29.40;;;5.80;99.90;;;;;;2618450;54;20915;-81
2022/04/16 00:39:28;;;;;;;32.10;26.13;;;5.70;99.90;;;;;;2618295;54;20412;-81
2022/04/16 00:41:54;;;;;;;33.67;28.33;;;5.70;99.90;;;;;;2618281;47;20409;-81
2022/04/16 00:44:20;;;;;;;36.43;30.07;;;5.50;99.90;;;;;;2618269;54;20162;-81
2022/04/16 00:46:50;;;;;;;40.00;28.90;;;5.50;99.90;;;;;;2618236;47;20456;-81
2022/04/16 00:49:17;;;;;;;35.37;29.90;;;5.60;99.90;;;;;;2618429;47;20717;-81
2022/04/16 00:51:45;;;;;;;35.13;28.60;;;5.50;99.90;;;;;;2618222;47;20462;-81
2022/04/16 00:54:12;;;;;;;38.43;29.57;;;5.50;99.90;;;;;;2619152;39;20768;-81
2022/04/16 00:56:38;;;;;;;40.90;31.53;;;5.50;99.90;;;;;;2618335;47;20382;-81
2022/04/16 00:59:05;;;;;;;35.30;27.40;;;5.50;99.90;;;;;;2618066;47;20396;-81
2022/04/16 01:01:32;;;;;;;32.63;27.87;;;5.50;99.90;;;;;;2618201;54;20410;-80
2022/04/16 01:03:57;;;;;;;33.83;27.37;;;5.50;99.90;;;;;;2618656;39;20776;-80
2022/04/16 01:06:34;;;;;;;35.37;26.00;;;5.40;99.90;;;;;;2618793;39;20739;-82
2022/04/16 01:09:00;;;;;;;36.07;28.70;;;5.40;99.90;;;;;;2618133;54;20150;-80
2022/04/16 01:11:26;;;;;;;37.80;29.40;;;5.40;99.90;;;;;;2618285;54;20400;-81
2022/04/16 01:13:52;;;;;;;33.23;26.70;;;5.30;99.90;;;;;;2618250;54;20380;-80
2022/04/16 01:16:18;;;;;;;32.63;27.73;;;5.30;99.90;;;;;;2618242;47;20145;-79
2022/04/16 01:18:46;;;;;;;33.60;26.80;;;5.40;99.90;;;;;;2618120;47;20405;-79
2022/04/16 01:21:14;;;;;;;41.00;28.07;;;5.30;99.90;;;;;;2618265;39;20550;-80
2022/04/16 01:23:41;;;;;;;30.60;25.30;;;5.30;99.90;;;;;;2617836;54;20413;-81
2022/04/16 01:26:07;;;;;;;34.83;27.60;;;5.20;99.90;;;;;;2618020;54;20411;-81
2022/04/16 01:28:34;;;;;;;31.90;26.60;;;5.20;99.90;;;;;;2618334;54;20464;-81
2022/04/16 01:31:01;;;;;;;31.17;27.13;;;5.30;99.90;;;;;;2618108;47;20420;-81
2022/04/16 01:33:27;;;;;;;32.37;24.63;;;5.20;99.90;;;;;;2618094;54;20381;-80
2022/04/16 01:35:56;;;;;;;37.17;26.40;;;5.10;99.90;;;;;;2617907;47;20452;-80
2022/04/16 01:38:25;;;;;;;36.87;25.20;;;5.20;99.90;;;;;;2617832;54;20430;-80
2022/04/16 01:40:57;;;;;;;30.97;26.10;;;5.10;99.90;;;;;;2617852;47;20392;-80
2022/04/16 01:43:24;;;;;;;33.77;26.07;;;5.00;99.90;;;;;;2618247;47;20411;-81
2022/04/16 01:45:50;;;;;;;27.47;23.77;;;5.00;99.90;;;;;;2618620;54;20432;-81
2022/04/16 01:48:17;;;;;;;34.90;26.70;;;5.00;99.90;;;;;;2618355;46;20500;-81
2022/04/16 01:50:44;;;;;;;31.93;24.97;;;5.00;99.90;;;;;;2618588;54;20416;-80
2022/04/16 01:53:09;;;;;;;28.87;22.77;;;5.00;99.90;;;;;;2618423;31;20776;-80
2022/04/16 01:55:35;;;;;;;34.10;26.00;;;5.00;99.90;;;;;;2617845;47;20419;-80
2022/04/16 01:58:03;;;;;;;33.27;24.37;;;5.00;99.90;;;;;;2618316;39;20464;-80
2022/04/16 02:00:29;;;;;;;35.10;25.17;;;5.00;99.90;;;;;;2617867;47;20183;-80
2022/04/16 02:02:57;;;;;;;26.30;23.23;;;5.00;99.90;;;;;;2617557;47;21079;-81
2022/04/16 02:05:25;;;;;;;27.37;21.90;;;5.00;99.90;;;;;;2617693;47;20783;-80
2022/04/16 02:07:51;;;;;;;29.03;21.73;;;5.10;99.90;;;;;;2617722;47;20432;-80
2022/04/16 02:10:17;;;;;;;26.10;20.90;;;5.00;99.90;;;;;;2617705;54;20438;-80
2022/04/16 02:12:44;;;;;;;27.80;21.67;;;4.90;99.90;;;;;;2617736;54;20185;-80
2022/04/16 02:15:10;;;;;;;28.07;21.80;;;4.90;99.90;;;;;;2617604;54;20392;-81
2022/04/16 02:17:39;;;;;;;30.63;23.17;;;4.80;99.90;;;;;;2617545;54;20414;-80
2022/04/16 02:20:09;;;;;;;25.90;21.23;;;4.80;99.90;;;;;;2617345;54;20430;-80
2022/04/16 02:22:45;;;;;;;25.97;22.10;;;4.80;99.90;;;;;;2617990;54;20408;-81
2022/04/16 02:25:13;;;;;;;28.43;21.20;;;4.80;99.90;;;;;;2617516;54;20411;-82
2022/04/16 02:27:39;;;;;;;34.47;21.90;;;4.70;99.90;;;;;;2617961;54;20383;-79
2022/04/16 02:30:08;;;;;;;22.60;19.70;;;4.60;99.90;;;;;;2618037;54;20391;-80
2022/04/16 02:32:43;;;;;;;28.67;21.20;;;4.60;99.90;;;;;;2617549;47;20420;-80
2022/04/16 02:35:10;;;;;;;30.13;22.70;;;4.60;99.90;;;;;;2617041;54;20395;-80
2022/04/16 02:37:36;;;;;;;33.17;24.60;;;4.40;99.90;;;;;;2617674;54;20383;-80
2022/04/16 02:40:04;;;;;;;29.10;22.90;;;4.40;99.90;;;;;;2617714;47;20417;-81
2022/04/16 02:42:34;;;;;;;31.87;23.10;;;4.60;99.90;;;;;;2617644;54;20420;-82
2022/04/16 02:47:44;;;;;;;32.60;23.50;;;4.70;99.90;;;;;;2617600;47;20403;-82
2022/04/16 02:50:10;;;;;;;36.63;25.00;;;4.90;99.90;;;;;;2617528;47;20535;-82
2022/04/16 02:52:37;;;;;;;30.03;23.67;;;5.00;99.90;;;;;;2617533;46;20171;-82
2022/04/16 02:55:04;;;;;;;31.93;23.00;;;5.00;99.90;;;;;;2617352;47;20435;-81
2022/04/16 02:57:31;;;;;;;35.10;24.10;;;5.00;99.90;;;;;;2617122;47;20439;-81
2022/04/16 02:59:58;;;;;;;28.70;24.27;;;5.00;99.90;;;;;;2617259;54;20387;-80
2022/04/16 03:02:23;;;;;;;27.30;21.87;;;5.10;99.90;;;;;;2617396;39;20934;-80
2022/04/16 03:04:50;;;;;;;29.73;22.47;;;5.10;99.90;;;;;;2617398;47;20388;-81
2022/04/16 03:07:17;;;;;;;29.70;22.70;;;5.30;99.90;;;;;;2617784;31;20637;-81
2022/04/16 03:09:44;;;;;;;31.93;22.70;;;5.40;99.90;;;;;;2617208;54;20946;-80
2022/04/16 03:12:10;;;;;;;30.83;23.00;;;5.50;99.90;;;;;;2616956;47;20414;-81
2022/04/16 03:17:33;;;;;;;27.17;21.97;;;5.60;99.90;;;;;;2617233;39;20759;-80
2022/04/16 03:20:04;;;;;;;30.20;22.20;;;5.80;99.90;;;;;;2616350;47;20384;-80
2022/04/16 03:22:34;;;;;;;36.43;24.00;;;5.70;99.90;;;;;;2616273;54;20415;-80
2022/04/16 03:25:07;;;;;;;27.10;23.17;;;5.60;99.90;;;;;;2616743;54;20417;-79
2022/04/16 03:27:34;;;;;;;27.10;21.70;;;5.60;99.90;;;;;;2616717;47;20432;-79
2022/04/16 03:30:01;;;;;;;32.10;23.27;;;5.60;99.90;;;;;;2616631;47;20412;-79
2022/04/16 03:32:26;;;;;;;29.20;21.90;;;5.80;99.90;;;;;;2616233;54;20397;-79
2022/04/16 03:34:52;;;;;;;27.60;21.47;;;5.80;99.90;;;;;;2616300;54;20408;-79
2022/04/16 03:37:18;;;;;;;28.10;21.50;;;5.80;99.90;;;;;;2616085;47;20168;-80
2022/04/16 03:39:44;;;;;;;33.40;21.70;;;5.80;99.90;;;;;;2616453;47;20168;-79
2022/04/16 03:42:11;;;;;;;26.13;20.67;;;5.60;99.90;;;;;;2616452;47;20167;-80
2022/04/16 03:44:37;;;;;;;24.83;21.87;;;5.50;99.90;;;;;;2616571;39;20813;-80
2022/04/16 03:47:04;;;;;;;26.60;21.00;;;5.40;99.90;;;;;;2616617;54;20408;-80
2022/04/16 03:49:30;;;;;;;30.47;21.00;;;5.20;99.90;;;;;;2617632;54;20475;-79
2022/04/16 03:51:56;;;;;;;25.57;21.50;;;5.30;99.90;;;;;;2617314;47;20412;-80
2022/04/16 03:59:59;;;;;;;23.90;20.83;;;5.50;99.90;;;;;;2617096;47;20520;-80
2022/04/16 04:02:29;;;;;;;27.97;22.80;;;5.60;99.90;;;;;;2617116;46;20399;-80
2022/04/16 04:04:58;;;;;;;28.50;24.27;;;5.80;99.90;;;;;;2616452;47;20494;-80
2022/04/16 04:07:25;;;;;;;27.50;22.20;;;5.80;99.90;;;;;;2617384;54;20978;-80
2022/04/16 04:09:52;;;;;;;27.97;23.23;;;6.00;99.90;;;;;;2616870;54;20391;-80
2022/04/16 04:12:18;;;;;;;28.43;22.23;;;6.10;99.90;;;;;;2617010;47;20412;-79
2022/04/16 04:14:45;;;;;;;30.47;24.40;;;6.20;99.90;;;;;;2617041;47;20958;-80
2022/04/16 04:17:12;;;;;;;29.90;22.87;;;6.30;99.90;;;;;;2616810;47;20164;-80
2022/04/16 04:19:40;;;;;;;30.57;23.87;;;6.20;99.90;;;;;;2617063;47;20802;-80
2022/04/16 04:22:08;;;;;;;30.20;23.70;;;6.20;99.90;;;;;;2617722;54;20418;-80
2022/04/16 04:24:36;;;;;;;30.87;23.30;;;6.10;99.90;;;;;;2617351;31;20831;-80
2022/04/16 04:27:03;;;;;;;33.50;23.83;;;6.00;99.90;;;;;;2617016;54;20401;-83
2022/04/16 04:29:29;;;;;;;33.47;24.00;;;6.00;99.90;;;;;;2616818;54;20422;-80
2022/04/16 04:31:56;;;;;;;33.20;24.60;;;6.00;99.90;;;;;;2616315;54;20410;-79
2022/04/16 04:34:22;;;;;;;30.13;24.70;;;5.90;99.90;;;;;;2616710;54;20407;-81
2022/04/16 04:36:49;;;;;;;34.30;24.20;;;6.00;99.90;;;;;;2616590;47;20422;-80
2022/04/16 04:39:14;;;;;;;32.67;25.37;;;6.10;99.90;;;;;;2616604;46;20445;-79
2022/04/16 04:41:43;;;;;;;32.80;26.83;;;6.00;99.90;;;;;;2617058;39;20450;-80
2022/04/16 04:44:15;;;;;;;31.00;25.23;;;6.00;99.90;;;;;;2616889;46;20276;-80
2022/04/16 04:46:42;;;;;;;34.90;26.30;;;6.10;99.90;;;;;;2616688;47;20418;-79
2022/04/16 04:49:08;;;;;;;36.73;25.30;;;6.10;99.90;;;;;;2616941;54;20514;-80
2022/04/16 04:51:36;;;;;;;32.93;26.30;;;6.20;99.90;;;;;;2616898;54;20932;-80
2022/04/16 04:54:03;;;;;;;37.37;27.30;;;6.20;99.90;;;;;;2616397;47;20421;-82
2022/04/16 04:56:29;;;;;;;38.80;28.70;;;6.30;99.90;;;;;;2616475;54;20424;-80
2022/04/16 04:58:56;;;;;;;38.77;29.40;;;6.30;99.90;;;;;;2616868;46;20426;-80
2022/04/16 05:01:22;;;;;;;39.23;28.47;;;6.40;99.90;;;;;;2616752;39;20818;-80
2022/04/16 05:04:11;;;;;;;46.30;31.80;;;6.40;99.90;;;;;;2616840;54;20456;-80
2022/04/16 05:06:37;;;;;;;47.83;30.77;;;6.50;99.90;;;;;;2615224;47;20184;-80
2022/04/16 05:09:03;;;;;;;44.37;30.70;;;6.60;99.90;;;;;;2615159;47;20520;-80
2022/04/16 05:11:29;;;;;;;41.53;30.77;;;6.80;99.90;;;;;;2614413;54;20245;-78
2022/04/16 05:13:55;;;;;;;42.40;30.83;;;6.80;99.90;;;;;;2614959;52;20432;-80
2022/04/16 05:16:20;;;;;;;40.43;29.93;;;7.00;99.90;;;;;;2614369;54;20291;-80
2022/04/16 05:18:46;;;;;;;45.97;30.57;;;7.00;99.90;;;;;;2615089;54;20710;-80
2022/04/16 05:21:12;;;;;;;44.73;29.63;;;7.00;99.90;;;;;;2614879;47;20166;-80
2022/04/16 05:23:39;;;;;;;44.73;32.03;;;7.00;99.90;;;;;;2615257;54;20181;-79
2022/04/16 05:26:09;;;;;;;46.40;31.63;;;7.00;99.90;;;;;;2615187;47;20169;-80
2022/04/16 05:28:35;;;;;;;46.70;31.70;;;7.00;99.90;;;;;;2615280;54;20411;-79
2022/04/16 05:31:04;;;;;;;48.70;33.83;;;7.00;99.90;;;;;;2615065;46;20450;-80
2022/04/16 05:36:15;;;;;;;45.67;30.30;;;7.40;99.90;;;;;;2615004;39;20835;-80
2022/04/16 05:38:42;;;;;;;51.27;35.63;;;7.60;99.90;;;;;;2615111;47;20455;-79
2022/04/16 05:41:09;;;;;;;48.80;34.33;;;7.70;99.90;;;;;;2614763;47;21041;-80
2022/04/16 05:43:35;;;;;;;52.10;34.40;;;7.90;99.90;;;;;;2615050;47;20411;-80
2022/04/16 05:46:02;;;;;;;50.50;32.20;;;8.00;99.90;;;;;;2615843;47;20458;-81
2022/04/16 05:48:27;;;;;;;50.87;30.90;;;8.10;99.90;;;;;;2615292;51;20170;-81
2022/04/16 05:50:57;;;;;;;45.67;33.17;;;8.20;99.90;;;;;;2615735;54;20439;-79
2022/04/16 05:53:24;;;;;;;42.97;30.30;;;8.40;99.90;;;;;;2615615;47;20403;-79
2022/04/16 05:55:53;;;;;;;34.57;27.80;;;8.50;99.90;;;;;;2615561;54;20429;-79
2022/04/16 05:58:19;;;;;;;34.87;28.10;;;8.90;99.90;;;;;;2615723;47;21373;-79
2022/04/16 06:00:45;;;;;;;34.93;27.27;;;9.10;99.90;;;;;;2617171;39;20798;-80
2022/04/16 06:03:12;;;;;;;40.23;28.33;;;9.20;99.90;;;;;;2615813;51;21015;-81
2022/04/16 06:05:38;;;;;;;34.03;26.83;;;9.40;99.90;;;;;;2615295;46;20471;-80
2022/04/16 06:08:04;;;;;;;29.33;24.13;;;9.60;99.90;;;;;;2615493;39;20887;-80
2022/04/16 06:10:30;;;;;;;32.17;26.73;;;9.70;99.90;;;;;;2615888;54;20420;-80
2022/04/16 06:12:56;;;;;;;32.13;25.60;;;9.90;99.90;;;;;;2614842;54;20415;-80
2022/04/16 06:15:22;;;;;;;36.93;28.00;;;10.20;99.90;;;;;;2615993;54;20179;-79
2022/04/16 06:17:48;;;;;;;33.20;26.77;;;10.40;99.90;;;;;;2614624;54;20228;-80
2022/04/16 06:20:14;;;;;;;33.37;25.83;;;10.50;99.90;;;;;;2614602;47;20201;-80
2022/04/16 06:22:40;;;;;;;31.30;26.50;;;10.60;99.90;;;;;;2614712;54;20638;-80
2022/04/16 06:25:08;;;;;;;29.90;26.50;;;10.90;99.90;;;;;;2614551;54;20523;-80
2022/04/16 06:27:39;;;;;;;28.20;23.50;;;11.10;99.90;;;;;;2614597;51;20448;-80
2022/04/16 06:30:11;;;;;;;31.10;24.50;;;11.10;99.90;;;;;;2614069;54;20454;-80
2022/04/16 06:32:38;;;;;;;28.97;24.30;;;11.20;99.90;;;;;;2614124;54;20420;-80
2022/04/16 06:35:05;;;;;;;30.20;24.27;;;11.50;99.90;;;;;;2650143;36;20510;-78
2022/04/16 06:37:35;;;;;;;31.07;23.67;;;11.70;99.90;;;;;;2615418;47;20456;-79
2022/04/16 06:40:02;;;;;;;26.47;23.37;;;11.90;99.90;;;;;;2613805;54;20413;-81
2022/04/16 06:42:28;;;;;;;29.57;24.40;;;12.10;99.90;;;;;;2612622;54;20415;-79
2022/04/16 06:44:54;;;;;;;27.10;23.10;;;12.40;99.90;;;;;;2614870;54;20423;-80
2022/04/16 06:47:21;;;;;;;25.90;20.30;;;12.70;99.90;;;;;;2614108;54;20417;-79
2022/04/16 06:49:47;;;;;;;24.90;21.00;;;12.70;99.90;;;;;;2614820;47;20398;-78
2022/04/16 06:52:16;;;;;;;24.40;21.47;;;12.40;99.90;;;;;;2615710;31;20835;-80
2022/04/16 06:54:42;;;;;;;30.27;22.30;;;12.30;99.90;;;;;;2614137;39;20592;-79
2022/04/16 06:57:08;;;;;;;21.90;19.27;;;12.60;99.90;;;;;;2614215;54;20904;-78
2022/04/16 06:59:34;;;;;;;24.53;21.30;;;12.60;99.90;;;;;;2614194;46;20410;-78
2022/04/16 07:01:59;;;;;;;20.73;18.60;;;12.90;99.90;;;;;;2613512;47;20322;-79
2022/04/16 07:04:25;;;;;;;22.93;19.20;;;13.30;99.90;;;;;;2614486;51;20183;-80
2022/04/16 07:06:51;;;;;;;20.07;18.00;;;13.80;99.90;;;;;;2613899;54;20154;-78
2022/04/16 07:09:17;;;;;;;18.93;17.00;;;14.10;99.90;;;;;;2614871;47;20261;-78
2022/04/16 07:11:44;;;;;;;19.03;16.97;;;14.10;99.90;;;;;;2615346;54;20154;-80
2022/04/16 07:14:10;;;;;;;18.23;16.17;;;13.60;99.90;;;;;;2614095;47;20929;-79
2022/04/16 07:16:37;;;;;;;19.20;16.70;;;13.30;99.90;;;;;;2613405;47;20419;-80
2022/04/16 07:19:05;;;;;;;19.83;15.90;;;13.10;99.90;;;;;;2614397;47;20955;-77
2022/04/16 07:21:31;;;;;;;19.70;17.57;;;12.60;99.90;;;;;;2631791;36;20990;-79
2022/04/16 07:23:58;;;;;;;22.87;16.63;;;12.60;99.90;;;;;;2613187;47;20531;-78
2022/04/16 07:26:24;;;;;;;18.73;16.70;;;12.30;99.90;;;;;;2614247;54;20174;-79
2022/04/16 07:28:50;;;;;;;22.90;16.70;;;12.40;99.90;;;;;;2614297;54;20534;-79
2022/04/16 07:31:16;;;;;;;20.30;16.17;;;12.80;99.90;;;;;;2613995;54;20427;-79
2022/04/16 07:33:42;;;;;;;20.47;15.97;;;13.00;99.90;;;;;;2614612;39;20816;-79
2022/04/16 07:36:07;;;;;;;18.27;16.37;;;13.10;99.90;;;;;;2612936;54;20199;-79
2022/04/16 07:38:34;;;;;;;19.60;16.53;;;13.10;99.90;;;;;;2613316;54;20420;-80
2022/04/16 07:41:02;;;;;;;18.93;15.90;;;13.30;99.90;;;;;;2613379;54;20158;-80
2022/04/16 07:43:32;;;;;;;19.83;17.37;;;13.60;99.90;;;;;;2614830;54;20419;-79
2022/04/16 07:46:00;;;;;;;17.77;14.40;;;14.20;99.90;;;;;;2613049;39;20992;-80
2022/04/16 07:48:26;;;;;;;17.03;15.30;;;14.70;96.50;;;;;;2614651;47;20408;-79
2022/04/16 07:50:52;;;;;;;16.77;15.07;;;14.90;94.20;;;;;;2614424;54;20464;-78
2022/04/16 07:53:18;;;;;;;18.00;16.10;;;15.10;90.60;;;;;;2613432;54;20204;-79
2022/04/16 07:55:43;;;;;;;18.47;16.57;;;15.10;91.50;;;;;;2614055;39;20519;-79
2022/04/16 07:58:10;;;;;;;17.30;15.53;;;15.30;79.00;;;;;;2613424;54;20204;-79
2022/04/16 08:00:36;;;;;;;20.23;16.17;;;15.30;74.00;;;;;;2614524;39;20538;-78
2022/04/16 08:03:02;;;;;;;17.20;15.40;;;15.60;71.60;;;;;;2612718;54;20489;-78
2022/04/16 08:05:27;;;;;;;18.23;14.27;;;15.80;66.40;;;;;;2612967;54;20217;-78
2022/04/16 08:07:53;;;;;;;17.57;15.87;;;16.20;61.60;;;;;;2613087;54;20200;-80
2022/04/16 08:10:19;;;;;;;16.87;15.10;;;16.30;50.00;;;;;;2613283;47;20206;-79
2022/04/16 08:12:45;;;;;;;18.53;16.60;;;16.20;50.40;;;;;;2613952;54;20421;-80
2022/04/16 08:15:12;;;;;;;17.77;15.40;;;16.00;50.50;;;;;;2613666;54;20981;-79
2022/04/16 08:17:38;;;;;;;18.30;16.30;;;16.10;53.30;;;;;;2613378;51;20178;-79
2022/04/16 08:20:06;;;;;;;15.77;14.23;;;16.30;52.50;;;;;;2613024;54;21062;-78
2022/04/16 08:22:34;;;;;;;18.07;16.17;;;16.50;40.90;;;;;;2612838;54;20955;-78
2022/04/16 08:27:47;;;;;;;19.23;14.57;;;16.10;43.90;;;;;;2612694;54;20426;-79
2022/04/16 08:30:15;;;;;;;17.40;14.23;;;16.20;40.00;;;;;;2612686;54;20417;-78
2022/04/16 08:32:42;;;;;;;14.47;12.03;;;16.00;37.40;;;;;;2614417;54;20441;-80
2022/04/16 08:35:16;;;;;;;17.40;15.70;;;15.80;36.90;;;;;;2615179;54;20419;-78
2022/04/16 08:37:42;;;;;;;13.50;12.20;;;15.90;39.90;;;;;;2614623;46;20433;-79
2022/04/16 08:40:09;;;;;;;14.23;12.07;;;16.00;36.40;;;;;;2614779;46;20415;-80
2022/04/16 08:42:38;;;;;;;13.30;12.00;;;16.20;31.10;;;;;;2614784;54;20458;-79
2022/04/16 08:45:07;;;;;;;15.07;13.60;;;16.20;28.80;;;;;;2614413;54;20499;-79
2022/04/16 08:47:34;;;;;;;13.30;12.20;;;16.50;25.90;;;;;;2614698;54;20460;-80
2022/04/16 08:50:02;;;;;;;12.37;11.07;;;16.70;22.20;;;;;;2614861;54;20447;-79
2022/04/16 08:52:32;;;;;;;11.97;10.97;;;16.80;18.30;;;;;;2615068;54;20423;-80
2022/04/16 08:54:59;;;;;;;11.63;10.63;;;17.00;15.00;;;;;;2615459;54;20447;-80
2022/04/16 08:57:25;;;;;;;12.70;11.50;;;16.90;13.30;;;;;;2612801;47;20436;-79
2022/04/16 08:59:52;;;;;;;12.20;11.03;;;16.90;12.30;;;;;;2613403;54;20949;-78
2022/04/16 09:02:22;;;;;;;11.40;10.30;;;16.80;10.70;;;;;;2614936;47;21095;-79
2022/04/16 09:04:49;;;;;;;11.67;10.47;;;16.60;11.70;;;;;;2613425;54;21395;-80
2022/04/16 09:07:15;;;;;;;12.73;11.53;;;17.00;9.20;;;;;;2615786;39;20868;-80
2022/04/16 09:09:42;;;;;;;11.63;10.20;;;16.70;9.90;;;;;;2614055;47;20420;-79
2022/04/16 09:12:19;;;;;;;11.77;10.70;;;16.60;8.30;;;;;;2615060;51;20424;-80
2022/04/16 09:14:46;;;;;;;11.77;9.60;;;16.70;10.90;;;;;;2616217;54;20418;-79
2022/04/16 09:17:18;;;;;;;12.10;11.00;;;16.70;9.10;;;;;;2615716;54;20435;-79
2022/04/16 09:19:55;;;;;;;12.53;11.43;;;16.60;8.30;;;;;;2615205;54;20431;-79
2022/04/16 09:22:35;;;;;;;13.57;12.17;;;16.50;10.60;;;;;;2615433;54;20401;-78
2022/04/16 09:25:02;;;;;;;14.37;12.97;;;17.20;11.20;;;;;;2614913;54;20402;-79
2022/04/16 09:27:41;;;;;;;13.00;11.77;;;17.60;11.10;;;;;;2614755;54;20413;-79
2022/04/16 09:30:08;;;;;;;13.30;12.10;;;17.90;8.20;;;;;;2615295;39;20817;-79
2022/04/16 09:32:45;;;;;;;13.67;12.37;;;17.70;5.70;;;;;;2615571;39;20809;-78
2022/04/16 09:35:33;;;;;;;17.20;13.13;;;17.10;6.80;;;;;;2615410;54;20400;-80
2022/04/16 09:38:01;;;;;;;14.50;13.03;;;16.80;8.00;;;;;;2615877;46;20439;-79
2022/04/16 09:40:29;;;;;;;13.90;12.53;;;16.50;8.60;;;;;;2615809;47;20415;-79
2022/04/16 09:43:00;;;;;;;13.27;11.80;;;16.50;7.00;;;;;;2616590;39;20957;-79
2022/04/16 09:45:28;;;;;;;12.47;11.33;;;16.40;8.00;;;;;;2615603;39;20900;-79
2022/04/16 09:47:54;;;;;;;12.20;10.90;;;16.70;7.40;;;;;;2616038;39;20799;-79
2022/04/16 09:50:22;;;;;;;11.67;10.63;;;16.80;7.20;;;;;;2615145;47;20511;-79
2022/04/16 09:52:56;;;;;;;11.80;10.70;;;16.70;6.20;;;;;;2616564;39;20836;-79
2022/04/16 09:55:24;;;;;;;12.37;11.17;;;16.80;7.20;;;;;;2615111;51;20424;-80
2022/04/16 09:57:54;;;;;;;11.47;10.50;;;16.90;7.10;;;;;;2616754;31;20987;-80
2022/04/16 10:00:21;;;;;;;11.77;10.67;;;17.20;5.80;;;;;;2615841;54;20416;-80
2022/04/16 10:02:47;;;;;;;10.60;9.60;;;17.60;5.40;;;;;;2616849;54;21019;-81
2022/04/16 10:05:14;;;;;;;13.47;12.20;;;18.00;2.40;;;;;;2614931;46;20553;-79
2022/04/16 10:07:46;;;;;;;13.43;11.27;;;17.90;2.30;;;;;;2615826;47;20436;-78
2022/04/16 10:10:17;;;;;;;12.03;11.03;;;17.70;2.20;;;;;;2614964;54;20422;-79
2022/04/16 10:13:00;;;;;;;12.23;11.23;;;17.90;2.30;;;;;;2615753;39;20798;-79
2022/04/16 10:15:51;;;;;;;12.50;11.30;;;17.80;1.80;;;;;;2614743;54;20408;-81
2022/04/16 10:18:17;;;;;;;12.83;11.50;;;17.90;1.00;;;;;;2615900;39;20846;-80
2022/04/16 10:20:54;;;;;;;11.93;10.93;;;18.20;1.00;;;;;;2614810;47;20946;-80
2022/04/16 10:23:38;;;;;;;12.07;10.97;;;18.30;1.00;;;;;;2615554;54;20430;-80
2022/04/16 10:26:09;;;;;;;10.30;9.50;;;18.30;1.00;;;;;;2614191;47;20533;-80
2022/04/16 10:28:55;;;;;;;11.40;10.40;;;18.00;1.00;;;;;;2615317;47;20424;-82
2022/04/16 10:31:27;;;;;;;10.23;9.20;;;17.90;1.00;;;;;;2616502;54;20431;-79
2022/04/16 10:34:16;;;;;;;9.87;8.87;;;17.60;1.00;;;;;;2615335;54;20400;-78
2022/04/16 10:36:52;;;;;;;9.93;9.03;;;18.20;1.00;;;;;;2614787;47;20520;-80
2022/04/16 10:39:19;;;;;;;10.30;9.43;;;18.60;1.00;;;;;;2615566;54;20435;-80
2022/04/16 10:42:11;;;;;;;9.80;8.90;;;18.50;1.00;;;;;;2615753;54;21101;-80
2022/04/16 10:44:47;;;;;;;10.57;9.67;;;18.50;1.00;;;;;;2615663;54;20446;-79
2022/04/16 10:47:15;;;;;;;9.80;8.90;;;18.40;1.00;;;;;;2614767;39;20869;-80
2022/04/16 10:49:42;;;;;;;10.23;9.43;;;18.40;1.00;;;;;;2617333;31;20961;-80
2022/04/16 10:52:24;;;;;;;9.27;8.37;;;18.20;1.00;;;;;;2615669;54;21019;-79
2022/04/16 10:55:01;;;;;;;11.27;8.13;;;18.30;1.00;;;;;;2616051;39;20794;-79
2022/04/16 10:57:28;;;;;;;8.93;8.33;;;18.60;1.00;;;;;;2633153;36;20584;-79
2022/04/16 10:59:56;;;;;;;9.20;8.50;;;18.80;1.00;;;;;;2615707;39;20912;-79
2022/04/16 11:02:27;;;;;;;7.53;7.03;;;18.80;1.00;;;;;;2615765;39;20798;-79
2022/04/16 11:05:05;;;;;;;8.30;7.70;;;18.50;1.00;;;;;;2615574;54;20493;-80
2022/04/16 11:07:35;;;;;;;9.00;8.23;;;18.50;1.00;;;;;;2615191;39;20825;-80
2022/04/16 11:10:10;;;;;;;8.40;7.70;;;18.50;1.00;;;;;;2615893;47;20437;-79
2022/04/16 11:12:40;;;;;;;8.40;7.50;;;18.80;1.00;;;;;;2616236;31;21047;-78
2022/04/16 11:15:14;;;;;;;7.80;7.20;;;19.00;1.00;;;;;;2615702;54;20975;-80
2022/04/16 11:17:40;;;;;;;9.57;8.67;;;19.20;1.00;;;;;;2615369;39;20877;-80
2022/04/16 11:20:07;;;;;;;8.33;7.53;;;19.40;1.00;;;;;;2615771;47;20442;-80
2022/04/16 11:22:33;;;;;;;8.50;7.80;;;19.40;1.00;;;;;;2615347;47;20462;-79
2022/04/16 11:25:00;;;;;;;9.60;8.80;;;19.30;1.00;;;;;;2615479;54;20984;-80
2022/04/16 11:36:00;;;;;;;9.33;8.53;;;18.90;1.00;;;;;;2614583;54;20414;-78
2022/04/16 11:38:30;;;;;;;8.30;7.70;;;18.50;1.00;;;;;;2615161;39;20872;-80
2022/04/16 11:41:01;;;;;;;9.40;8.60;;;18.50;1.00;;;;;;2612748;54;20585;-80
2022/04/16 11:43:28;;;;;;;8.60;7.90;;;18.40;1.00;;;;;;2614383;47;21057;-79
2022/04/16 11:45:57;;;;;;;8.20;7.50;;;18.50;1.00;;;;;;2614452;54;20469;-81
2022/04/16 11:48:23;;;;;;;8.77;8.07;;;18.50;1.00;;;;;;2614052;54;20419;-80
2022/04/16 11:50:50;;;;;;;6.47;6.00;;;18.80;1.00;;;;;;2614103;54;20516;-80
2022/04/16 11:53:15;;;;;;;7.20;6.70;;;18.90;1.00;;;;;;2613905;54;20539;-80
2022/04/16 11:55:52;;;;;;;7.17;6.67;;;18.70;1.00;;;;;;2613993;54;20927;-79
2022/04/16 11:58:26;;;;;;;8.30;7.60;;;18.60;1.00;;;;;;2613031;54;20231;-79
2022/04/16 12:00:55;;;;;;;8.63;7.87;;;19.20;1.00;;;;;;2613488;47;20436;-78
2022/04/16 12:03:22;;;;;;;7.80;7.20;;;19.50;1.00;;;;;;2613436;39;20858;-80
2022/04/16 12:05:49;;;;;;;6.77;6.27;;;19.60;1.00;;;;;;2614763;46;20469;-79
2022/04/16 12:08:16;;;;;;;7.40;6.87;;;19.60;1.00;;;;;;2614534;54;20465;-79
2022/04/16 12:10:46;;;;;;;6.10;5.70;;;19.90;1.00;;;;;;2615404;54;20434;-79
2022/04/16 12:13:14;;;;;;;7.10;6.50;;;19.70;1.00;;;;;;2615893;39;20820;-79
2022/04/16 12:15:42;;;;;;;6.90;6.30;;;19.60;1.00;;;;;;2615633;54;20416;-79
2022/04/16 12:18:15;;;;;;;6.77;6.17;;;19.50;1.00;;;;;;2614954;46;20586;-79
2022/04/16 12:20:49;;;;;;;6.40;5.90;;;19.60;1.00;;;;;;2614952;54;21244;-80
2022/04/16 12:23:24;;;;;;;5.80;5.40;;;19.30;1.00;;;;;;2615723;39;20804;-79
2022/04/16 12:26:12;;;;;;;6.87;6.27;;;19.20;1.00;;;;;;2615162;54;20848;-79
2022/04/16 12:28:38;;;;;;;6.93;6.43;;;19.60;1.00;;;;;;2614834;47;20425;-78
2022/04/16 12:31:04;;;;;;;5.43;5.03;;;20.00;1.00;;;;;;2613426;54;20538;-79
2022/04/16 12:33:31;;;;;;;5.87;5.37;;;20.20;1.00;;;;;;2615016;54;20932;-80
2022/04/16 12:36:00;;;;;;;6.20;5.70;;;19.70;1.00;;;;;;2614685;47;20441;-81
2022/04/16 12:38:27;;;;;;;5.53;5.13;;;19.60;1.00;;;;;;2614410;47;20435;-79
2022/04/16 12:41:15;;;;;;;7.50;6.70;;;19.90;1.00;;;;;;2615054;54;20552;-79
2022/04/16 12:43:41;;;;;;;6.03;5.63;;;19.60;1.00;;;;;;2615772;46;20587;-80
2022/04/16 12:46:07;;;;;;;4.87;4.57;;;19.40;1.00;;;;;;2615659;39;20802;-80
2022/04/16 12:48:33;;;;;;;5.70;5.30;;;19.40;1.00;;;;;;2614918;39;20790;-81
2022/04/16 12:50:59;;;;;;;6.97;5.00;;;19.50;1.00;;;;;;2615544;46;20653;-79
2022/04/16 12:53:26;;;;;;;5.53;5.13;;;19.60;1.00;;;;;;2615006;47;20654;-78
2022/04/16 12:55:52;;;;;;;5.60;5.20;;;19.80;1.00;;;;;;2614749;54;20211;-82
2022/04/16 12:58:17;;;;;;;5.73;5.33;;;19.80;1.00;;;;;;2614720;54;20820;-79
2022/04/16 13:00:47;;;;;;;6.00;5.50;;;19.80;1.00;;;;;;2613642;54;20199;-78
2022/04/16 13:03:13;;;;;;;6.17;5.77;;;19.70;1.00;;;;;;2615187;54;20181;-79
2022/04/16 13:05:39;;;;;;;6.33;4.37;;;19.90;1.00;;;;;;2615249;54;20534;-80
2022/04/16 13:08:05;;;;;;;6.10;5.70;;;19.90;1.00;;;;;;2614668;47;20431;-80